Lapeer, Michigan
Current Conditions -  °F | °C
As of 9:14 PM on Monday 24 Nov 2014 (Local Time) from KD95 Reporting Station
Overcast Overcast  
Wind Chill: 24°   Ceiling: 1700
Heat Index: 34°   Visibility: 10mi
Dew Point: 29°   Wind: 17mph
Humidity: 82%   Direction: 240°WSW
Pressure: 29.55"   Gusts: 36mph
Location:  43.05°N, 83.31°W
Report Text: KD95 250214Z AUTO 24015G31KT 10SM OVC017 01/M01 A2955 RMK AO2 T00121015
Loading
Personal Weather Stations






























Interactive Weather Map New forecast layout! Learn more

10-Day Weather Forecast

Advertisements
Track Severe Weather on mobile